sensor_id;sensor_type;location;lat;lon;timestamp;P1;durP1;ratioP1;P2;durP2;ratioP2
15697;SDS011;7949;48.726;9.102;2022-07-21T00:01:47;28.43;;;22.57;;
15697;SDS011;7949;48.726;9.102;2022-07-21T00:04:14;30.70;;;21.97;;
15697;SDS011;7949;48.726;9.102;2022-07-21T00:06:41;34.97;;;23.53;;
15697;SDS011;7949;48.726;9.102;2022-07-21T00:09:08;30.93;;;23.60;;
15697;SDS011;7949;48.726;9.102;2022-07-21T00:11:35;31.87;;;22.33;;
15697;SDS011;7949;48.726;9.102;2022-07-21T00:14:02;26.77;;;22.03;;
15697;SDS011;7949;48.726;9.102;2022-07-21T00:16:31;27.23;;;21.23;;
15697;SDS011;7949;48.726;9.102;2022-07-21T00:18:58;29.10;;;23.00;;
15697;SDS011;7949;48.726;9.102;2022-07-21T00:21:25;26.50;;;21.20;;
15697;SDS011;7949;48.726;9.102;2022-07-21T00:23:52;30.97;;;22.27;;
15697;SDS011;7949;48.726;9.102;2022-07-21T00:26:19;30.13;;;21.77;;
15697;SDS011;7949;48.726;9.102;2022-07-21T00:28:45;25.77;;;21.03;;
15697;SDS011;7949;48.726;9.102;2022-07-21T00:31:12;26.20;;;21.90;;
15697;SDS011;7949;48.726;9.102;2022-07-21T00:33:41;27.07;;;22.60;;
15697;SDS011;7949;48.726;9.102;2022-07-21T00:36:08;29.10;;;23.33;;
15697;SDS011;7949;48.726;9.102;2022-07-21T00:38:35;27.90;;;22.00;;
15697;SDS011;7949;48.726;9.102;2022-07-21T00:41:01;28.17;;;22.23;;
15697;SDS011;7949;48.726;9.102;2022-07-21T00:43:28;29.83;;;21.90;;
15697;SDS011;7949;48.726;9.102;2022-07-21T00:45:55;29.27;;;22.40;;
15697;SDS011;7949;48.726;9.102;2022-07-21T00:48:22;25.40;;;21.30;;
15697;SDS011;7949;48.726;9.102;2022-07-21T00:50:50;25.57;;;20.17;;
15697;SDS011;7949;48.726;9.102;2022-07-21T00:53:17;30.77;;;21.20;;
15697;SDS011;7949;48.726;9.102;2022-07-21T00:55:45;30.67;;;22.37;;
15697;SDS011;7949;48.726;9.102;2022-07-21T00:58:12;33.03;;;21.97;;
15697;SDS011;7949;48.726;9.102;2022-07-21T01:00:39;25.43;;;21.50;;
15697;SDS011;7949;48.726;9.102;2022-07-21T01:03:06;24.97;;;19.83;;
15697;SDS011;7949;48.726;9.102;2022-07-21T01:05:33;21.47;;;15.97;;
15697;SDS011;7949;48.726;9.102;2022-07-21T01:08:02;20.17;;;14.83;;
15697;SDS011;7949;48.726;9.102;2022-07-21T01:10:29;18.80;;;14.43;;
15697;SDS011;7949;48.726;9.102;2022-07-21T01:12:57;21.23;;;15.43;;
15697;SDS011;7949;48.726;9.102;2022-07-21T01:15:24;21.17;;;16.37;;
15697;SDS011;7949;48.726;9.102;2022-07-21T01:17:51;23.23;;;17.17;;
15697;SDS011;7949;48.726;9.102;2022-07-21T01:20:19;20.43;;;15.87;;
15697;SDS011;7949;48.726;9.102;2022-07-21T01:22:50;20.60;;;16.33;;
15697;SDS011;7949;48.726;9.102;2022-07-21T01:25:18;22.97;;;16.23;;
15697;SDS011;7949;48.726;9.102;2022-07-21T01:27:45;20.57;;;16.57;;
15697;SDS011;7949;48.726;9.102;2022-07-21T01:30:13;18.33;;;15.47;;
15697;SDS011;7949;48.726;9.102;2022-07-21T01:32:40;21.80;;;15.97;;
15697;SDS011;7949;48.726;9.102;2022-07-21T01:35:08;19.80;;;16.20;;
15697;SDS011;7949;48.726;9.102;2022-07-21T01:37:37;20.17;;;15.93;;
15697;SDS011;7949;48.726;9.102;2022-07-21T01:40:08;21.07;;;16.37;;
15697;SDS011;7949;48.726;9.102;2022-07-21T01:42:53;21.90;;;17.23;;
15697;SDS011;7949;48.726;9.102;2022-07-21T01:45:20;23.63;;;17.57;;
15697;SDS011;7949;48.726;9.102;2022-07-21T01:47:48;23.30;;;16.70;;
15697;SDS011;7949;48.726;9.102;2022-07-21T01:50:15;23.47;;;17.33;;
15697;SDS011;7949;48.726;9.102;2022-07-21T01:52:44;19.97;;;15.70;;
15697;SDS011;7949;48.726;9.102;2022-07-21T01:55:12;20.07;;;15.40;;
15697;SDS011;7949;48.726;9.102;2022-07-21T01:57:39;19.80;;;16.07;;
15697;SDS011;7949;48.726;9.102;2022-07-21T02:00:07;24.20;;;17.93;;
15697;SDS011;7949;48.726;9.102;2022-07-21T02:02:35;29.63;;;17.70;;
15697;SDS011;7949;48.726;9.102;2022-07-21T02:05:02;25.13;;;17.80;;
15697;SDS011;7949;48.726;9.102;2022-07-21T02:07:29;22.87;;;17.90;;
15697;SDS011;7949;48.726;9.102;2022-07-21T02:09:56;21.50;;;17.30;;
15697;SDS011;7949;48.726;9.102;2022-07-21T02:12:24;21.07;;;17.60;;
15697;SDS011;7949;48.726;9.102;2022-07-21T02:14:51;20.97;;;16.60;;
15697;SDS011;7949;48.726;9.102;2022-07-21T02:17:18;19.03;;;15.33;;
15697;SDS011;7949;48.726;9.102;2022-07-21T02:19:45;23.43;;;17.17;;
15697;SDS011;7949;48.726;9.102;2022-07-21T02:22:12;19.90;;;17.00;;
15697;SDS011;7949;48.726;9.102;2022-07-21T02:24:38;27.50;;;16.40;;
15697;SDS011;7949;48.726;9.102;2022-07-21T02:27:06;19.47;;;15.37;;
15697;SDS011;7949;48.726;9.102;2022-07-21T02:29:34;22.43;;;15.83;;
15697;SDS011;7949;48.726;9.102;2022-07-21T02:32:01;22.10;;;16.33;;
15697;SDS011;7949;48.726;9.102;2022-07-21T02:34:28;23.50;;;15.63;;
15697;SDS011;7949;48.726;9.102;2022-07-21T02:36:55;21.43;;;15.53;;
15697;SDS011;7949;48.726;9.102;2022-07-21T02:39:21;21.37;;;16.20;;
15697;SDS011;7949;48.726;9.102;2022-07-21T02:41:48;20.53;;;15.50;;
15697;SDS011;7949;48.726;9.102;2022-07-21T02:44:15;22.70;;;16.53;;
15697;SDS011;7949;48.726;9.102;2022-07-21T02:46:43;22.33;;;16.60;;
15697;SDS011;7949;48.726;9.102;2022-07-21T02:49:10;20.57;;;16.53;;
15697;SDS011;7949;48.726;9.102;2022-07-21T02:51:37;21.67;;;16.17;;
15697;SDS011;7949;48.726;9.102;2022-07-21T02:54:04;21.53;;;16.40;;
15697;SDS011;7949;48.726;9.102;2022-07-21T02:56:31;20.10;;;15.87;;
15697;SDS011;7949;48.726;9.102;2022-07-21T02:58:57;24.20;;;17.23;;
15697;SDS011;7949;48.726;9.102;2022-07-21T03:01:24;25.23;;;17.13;;
15697;SDS011;7949;48.726;9.102;2022-07-21T03:03:52;25.33;;;17.80;;
15697;SDS011;7949;48.726;9.102;2022-07-21T03:06:19;20.60;;;16.20;;
15697;SDS011;7949;48.726;9.102;2022-07-21T03:08:46;22.33;;;16.07;;
15697;SDS011;7949;48.726;9.102;2022-07-21T03:11:13;24.40;;;16.93;;
15697;SDS011;7949;48.726;9.102;2022-07-21T03:13:40;22.23;;;16.57;;
15697;SDS011;7949;48.726;9.102;2022-07-21T03:16:06;22.97;;;17.30;;
15697;SDS011;7949;48.726;9.102;2022-07-21T03:18:33;21.33;;;17.17;;
15697;SDS011;7949;48.726;9.102;2022-07-21T03:21:02;27.33;;;17.90;;
15697;SDS011;7949;48.726;9.102;2022-07-21T03:23:29;24.87;;;17.03;;
15697;SDS011;7949;48.726;9.102;2022-07-21T03:25:56;22.33;;;15.17;;
15697;SDS011;7949;48.726;9.102;2022-07-21T03:28:22;21.43;;;15.17;;
15697;SDS011;7949;48.726;9.102;2022-07-21T03:30:49;21.83;;;14.77;;
15697;SDS011;7949;48.726;9.102;2022-07-21T03:33:16;17.57;;;14.00;;
15697;SDS011;7949;48.726;9.102;2022-07-21T03:35:43;22.17;;;14.60;;
15697;SDS011;7949;48.726;9.102;2022-07-21T03:38:11;19.67;;;14.97;;
15697;SDS011;7949;48.726;9.102;2022-07-21T03:40:38;18.93;;;14.27;;
15697;SDS011;7949;48.726;9.102;2022-07-21T03:43:07;19.50;;;14.37;;
15697;SDS011;7949;48.726;9.102;2022-07-21T03:45:35;23.47;;;16.57;;
15697;SDS011;7949;48.726;9.102;2022-07-21T03:48:02;23.17;;;15.33;;
15697;SDS011;7949;48.726;9.102;2022-07-21T03:50:31;21.20;;;15.50;;
15697;SDS011;7949;48.726;9.102;2022-07-21T03:52:59;23.90;;;15.50;;
15697;SDS011;7949;48.726;9.102;2022-07-21T03:55:27;21.07;;;14.63;;
15697;SDS011;7949;48.726;9.102;2022-07-21T03:57:55;20.33;;;14.53;;
15697;SDS011;7949;48.726;9.102;2022-07-21T04:00:24;19.20;;;14.60;;
15697;SDS011;7949;48.726;9.102;2022-07-21T04:02:52;23.20;;;14.73;;
15697;SDS011;7949;48.726;9.102;2022-07-21T04:05:19;21.97;;;14.77;;
15697;SDS011;7949;48.726;9.102;2022-07-21T04:07:48;23.30;;;14.30;;
15697;SDS011;7949;48.726;9.102;2022-07-21T04:10:17;19.70;;;14.13;;
15697;SDS011;7949;48.726;9.102;2022-07-21T04:12:47;19.97;;;13.57;;
15697;SDS011;7949;48.726;9.102;2022-07-21T04:15:15;32.40;;;15.20;;
15697;SDS011;7949;48.726;9.102;2022-07-21T04:17:43;17.60;;;13.73;;
15697;SDS011;7949;48.726;9.102;2022-07-21T04:20:10;17.93;;;14.17;;
15697;SDS011;7949;48.726;9.102;2022-07-21T04:22:39;21.60;;;14.37;;
15697;SDS011;7949;48.726;9.102;2022-07-21T04:25:07;23.13;;;14.77;;
15697;SDS011;7949;48.726;9.102;2022-07-21T04:27:35;20.27;;;14.23;;
15697;SDS011;7949;48.726;9.102;2022-07-21T04:30:05;18.77;;;14.07;;
15697;SDS011;7949;48.726;9.102;2022-07-21T04:32:34;18.33;;;13.93;;
15697;SDS011;7949;48.726;9.102;2022-07-21T04:35:01;21.60;;;16.10;;
15697;SDS011;7949;48.726;9.102;2022-07-21T04:37:28;21.67;;;15.07;;
15697;SDS011;7949;48.726;9.102;2022-07-21T04:39:55;20.13;;;15.20;;
15697;SDS011;7949;48.726;9.102;2022-07-21T04:42:22;17.33;;;14.70;;
15697;SDS011;7949;48.726;9.102;2022-07-21T04:44:49;20.10;;;14.63;;
15697;SDS011;7949;48.726;9.102;2022-07-21T04:47:18;18.07;;;15.00;;
15697;SDS011;7949;48.726;9.102;2022-07-21T04:49:45;22.30;;;16.10;;
15697;SDS011;7949;48.726;9.102;2022-07-21T04:52:12;21.17;;;16.03;;
15697;SDS011;7949;48.726;9.102;2022-07-21T04:54:39;20.07;;;15.73;;
15697;SDS011;7949;48.726;9.102;2022-07-21T04:57:06;20.17;;;14.97;;
15697;SDS011;7949;48.726;9.102;2022-07-21T04:59:33;20.20;;;15.47;;
15697;SDS011;7949;48.726;9.102;2022-07-21T05:02:02;19.30;;;13.90;;
15697;SDS011;7949;48.726;9.102;2022-07-21T05:04:31;19.90;;;15.37;;
15697;SDS011;7949;48.726;9.102;2022-07-21T05:06:58;18.00;;;14.93;;
15697;SDS011;7949;48.726;9.102;2022-07-21T05:09:25;21.07;;;15.53;;
15697;SDS011;7949;48.726;9.102;2022-07-21T05:11:52;19.67;;;15.57;;
15697;SDS011;7949;48.726;9.102;2022-07-21T05:14:18;22.17;;;15.90;;
15697;SDS011;7949;48.726;9.102;2022-07-21T05:16:45;20.90;;;15.80;;
15697;SDS011;7949;48.726;9.102;2022-07-21T05:19:12;24.17;;;17.27;;
15697;SDS011;7949;48.726;9.102;2022-07-21T05:21:41;23.93;;;16.23;;
15697;SDS011;7949;48.726;9.102;2022-07-21T05:24:08;29.87;;;19.03;;
15697;SDS011;7949;48.726;9.102;2022-07-21T05:26:35;25.93;;;18.40;;
15697;SDS011;7949;48.726;9.102;2022-07-21T05:29:02;27.20;;;18.30;;
15697;SDS011;7949;48.726;9.102;2022-07-21T05:31:29;28.20;;;17.27;;
15697;SDS011;7949;48.726;9.102;2022-07-21T05:33:56;26.30;;;18.50;;
15697;SDS011;7949;48.726;9.102;2022-07-21T05:36:23;25.87;;;18.83;;
15697;SDS011;7949;48.726;9.102;2022-07-21T05:38:51;26.37;;;18.83;;
15697;SDS011;7949;48.726;9.102;2022-07-21T05:41:18;25.00;;;18.67;;
15697;SDS011;7949;48.726;9.102;2022-07-21T05:43:46;25.20;;;18.03;;
15697;SDS011;7949;48.726;9.102;2022-07-21T05:46:13;27.47;;;19.20;;
15697;SDS011;7949;48.726;9.102;2022-07-21T05:48:40;21.60;;;16.73;;
15697;SDS011;7949;48.726;9.102;2022-07-21T05:51:07;21.93;;;16.70;;
15697;SDS011;7949;48.726;9.102;2022-07-21T05:53:34;24.77;;;17.43;;
15697;SDS011;7949;48.726;9.102;2022-07-21T05:56:02;21.70;;;16.17;;
15697;SDS011;7949;48.726;9.102;2022-07-21T05:58:29;17.33;;;15.07;;
15697;SDS011;7949;48.726;9.102;2022-07-21T06:00:56;19.73;;;15.97;;
15697;SDS011;7949;48.726;9.102;2022-07-21T06:03:38;19.73;;;15.23;;
15697;SDS011;7949;48.726;9.102;2022-07-21T06:06:06;21.03;;;14.77;;
15697;SDS011;7949;48.726;9.102;2022-07-21T06:08:33;16.17;;;12.33;;
15697;SDS011;7949;48.726;9.102;2022-07-21T06:11:02;17.90;;;13.17;;
15697;SDS011;7949;48.726;9.102;2022-07-21T06:13:29;16.00;;;12.23;;
15697;SDS011;7949;48.726;9.102;2022-07-21T06:15:56;15.23;;;12.93;;
15697;SDS011;7949;48.726;9.102;2022-07-21T06:18:23;19.03;;;13.50;;
15697;SDS011;7949;48.726;9.102;2022-07-21T06:20:49;17.30;;;11.67;;
15697;SDS011;7949;48.726;9.102;2022-07-21T06:23:16;14.53;;;11.10;;
15697;SDS011;7949;48.726;9.102;2022-07-21T06:25:43;17.43;;;11.17;;
15697;SDS011;7949;48.726;9.102;2022-07-21T06:28:12;16.97;;;12.20;;
15697;SDS011;7949;48.726;9.102;2022-07-21T06:30:40;14.77;;;11.53;;
15697;SDS011;7949;48.726;9.102;2022-07-21T06:33:07;13.47;;;10.63;;
15697;SDS011;7949;48.726;9.102;2022-07-21T06:35:34;11.27;;;9.13;;
15697;SDS011;7949;48.726;9.102;2022-07-21T06:38:01;21.30;;;10.53;;
15697;SDS011;7949;48.726;9.102;2022-07-21T06:40:28;13.03;;;10.03;;
15697;SDS011;7949;48.726;9.102;2022-07-21T06:42:55;11.53;;;10.33;;
15697;SDS011;7949;48.726;9.102;2022-07-21T06:45:24;14.50;;;9.40;;
15697;SDS011;7949;48.726;9.102;2022-07-21T06:47:58;13.87;;;10.50;;
15697;SDS011;7949;48.726;9.102;2022-07-21T06:50:27;16.67;;;10.63;;
15697;SDS011;7949;48.726;9.102;2022-07-21T06:52:54;13.80;;;10.87;;
15697;SDS011;7949;48.726;9.102;2022-07-21T06:55:21;14.47;;;10.23;;
15697;SDS011;7949;48.726;9.102;2022-07-21T06:57:48;16.67;;;9.73;;
15697;SDS011;7949;48.726;9.102;2022-07-21T07:00:15;12.70;;;8.53;;
15697;SDS011;7949;48.726;9.102;2022-07-21T07:02:44;11.10;;;8.93;;
15697;SDS011;7949;48.726;9.102;2022-07-21T07:05:11;10.80;;;8.57;;
15697;SDS011;7949;48.726;9.102;2022-07-21T07:07:38;12.77;;;9.20;;
15697;SDS011;7949;48.726;9.102;2022-07-21T07:10:05;12.50;;;8.47;;
15697;SDS011;7949;48.726;9.102;2022-07-21T07:12:33;13.50;;;9.40;;
15697;SDS011;7949;48.726;9.102;2022-07-21T07:15:01;11.50;;;9.60;;
15697;SDS011;7949;48.726;9.102;2022-07-21T07:17:28;12.53;;;8.83;;
15697;SDS011;7949;48.726;9.102;2022-07-21T07:19:56;13.23;;;8.80;;
15697;SDS011;7949;48.726;9.102;2022-07-21T07:22:23;14.57;;;8.80;;
15697;SDS011;7949;48.726;9.102;2022-07-21T07:24:51;10.67;;;8.27;;
15697;SDS011;7949;48.726;9.102;2022-07-21T07:27:18;12.20;;;8.33;;
15697;SDS011;7949;48.726;9.102;2022-07-21T07:29:45;9.57;;;7.50;;
15697;SDS011;7949;48.726;9.102;2022-07-21T07:32:12;12.50;;;8.37;;
15697;SDS011;7949;48.726;9.102;2022-07-21T07:34:39;11.53;;;8.00;;
15697;SDS011;7949;48.726;9.102;2022-07-21T07:37:07;12.80;;;8.50;;
15697;SDS011;7949;48.726;9.102;2022-07-21T07:39:35;11.17;;;7.77;;
15697;SDS011;7949;48.726;9.102;2022-07-21T07:42:03;11.73;;;8.13;;
15697;SDS011;7949;48.726;9.102;2022-07-21T07:44:30;14.33;;;7.97;;
15697;SDS011;7949;48.726;9.102;2022-07-21T07:46:57;10.83;;;7.70;;
15697;SDS011;7949;48.726;9.102;2022-07-21T07:49:26;12.87;;;8.20;;
15697;SDS011;7949;48.726;9.102;2022-07-21T07:51:53;12.70;;;8.13;;
15697;SDS011;7949;48.726;9.102;2022-07-21T07:54:22;13.17;;;8.07;;
15697;SDS011;7949;48.726;9.102;2022-07-21T07:56:49;9.07;;;7.33;;
15697;SDS011;7949;48.726;9.102;2022-07-21T07:59:15;12.10;;;8.50;;
15697;SDS011;7949;48.726;9.102;2022-07-21T08:01:42;12.33;;;7.37;;
15697;SDS011;7949;48.726;9.102;2022-07-21T08:04:09;10.90;;;7.80;;
15697;SDS011;7949;48.726;9.102;2022-07-21T08:06:38;10.43;;;7.30;;
15697;SDS011;7949;48.726;9.102;2022-07-21T08:09:06;9.30;;;7.00;;
15697;SDS011;7949;48.726;9.102;2022-07-21T08:11:35;8.40;;;6.93;;
15697;SDS011;7949;48.726;9.102;2022-07-21T08:14:02;10.37;;;7.23;;
15697;SDS011;7949;48.726;9.102;2022-07-21T08:16:29;9.93;;;6.53;;
15697;SDS011;7949;48.726;9.102;2022-07-21T08:18:56;10.40;;;6.63;;
15697;SDS011;7949;48.726;9.102;2022-07-21T08:21:23;7.07;;;6.23;;
15697;SDS011;7949;48.726;9.102;2022-07-21T08:23:55;8.73;;;6.70;;
15697;SDS011;7949;48.726;9.102;2022-07-21T08:26:22;8.53;;;6.30;;
15697;SDS011;7949;48.726;9.102;2022-07-21T08:28:51;7.57;;;5.53;;
15697;SDS011;7949;48.726;9.102;2022-07-21T08:31:18;6.07;;;5.07;;
15697;SDS011;7949;48.726;9.102;2022-07-21T08:33:45;7.83;;;5.37;;
15697;SDS011;7949;48.726;9.102;2022-07-21T08:36:11;8.37;;;5.13;;
15697;SDS011;7949;48.726;9.102;2022-07-21T08:38:38;7.50;;;5.57;;
15697;SDS011;7949;48.726;9.102;2022-07-21T08:41:05;8.83;;;5.60;;
15697;SDS011;7949;48.726;9.102;2022-07-21T08:43:33;9.03;;;5.73;;
15697;SDS011;7949;48.726;9.102;2022-07-21T08:46:02;5.20;;;4.70;;
15697;SDS011;7949;48.726;9.102;2022-07-21T08:48:29;8.63;;;5.47;;
15697;SDS011;7949;48.726;9.102;2022-07-21T08:50:56;8.40;;;5.33;;
15697;SDS011;7949;48.726;9.102;2022-07-21T08:53:23;7.03;;;5.47;;
15697;SDS011;7949;48.726;9.102;2022-07-21T08:55:51;6.73;;;5.30;;
15697;SDS011;7949;48.726;9.102;2022-07-21T08:58:19;10.30;;;5.80;;
15697;SDS011;7949;48.726;9.102;2022-07-21T09:00:47;8.33;;;5.87;;
15697;SDS011;7949;48.726;9.102;2022-07-21T09:03:17;7.93;;;5.33;;
15697;SDS011;7949;48.726;9.102;2022-07-21T09:08:33;6.80;;;5.10;;
15697;SDS011;7949;48.726;9.102;2022-07-21T09:11:12;8.77;;;5.50;;
15697;SDS011;7949;48.726;9.102;2022-07-21T09:13:41;5.53;;;4.60;;
15697;SDS011;7949;48.726;9.102;2022-07-21T09:16:09;8.57;;;5.30;;
15697;SDS011;7949;48.726;9.102;2022-07-21T09:18:47;6.90;;;4.70;;
15697;SDS011;7949;48.726;9.102;2022-07-21T09:21:16;8.77;;;5.30;;
15697;SDS011;7949;48.726;9.102;2022-07-21T09:23:43;7.60;;;5.30;;
15697;SDS011;7949;48.726;9.102;2022-07-21T09:26:11;8.20;;;5.10;;
15697;SDS011;7949;48.726;9.102;2022-07-21T09:28:38;12.13;;;6.17;;
15697;SDS011;7949;48.726;9.102;2022-07-21T09:31:08;5.83;;;5.00;;
15697;SDS011;7949;48.726;9.102;2022-07-21T09:33:38;6.57;;;5.00;;
15697;SDS011;7949;48.726;9.102;2022-07-21T09:36:08;6.17;;;4.97;;
15697;SDS011;7949;48.726;9.102;2022-07-21T09:38:36;9.27;;;4.80;;
15697;SDS011;7949;48.726;9.102;2022-07-21T09:41:10;7.83;;;4.50;;
15697;SDS011;7949;48.726;9.102;2022-07-21T09:43:40;4.90;;;4.40;;
15697;SDS011;7949;48.726;9.102;2022-07-21T09:46:09;7.87;;;5.07;;
15697;SDS011;7949;48.726;9.102;2022-07-21T09:48:38;5.80;;;4.27;;
15697;SDS011;7949;48.726;9.102;2022-07-21T09:51:24;5.97;;;4.30;;
15697;SDS011;7949;48.726;9.102;2022-07-21T09:53:54;8.77;;;4.40;;
15697;SDS011;7949;48.726;9.102;2022-07-21T09:56:24;5.13;;;4.00;;
15697;SDS011;7949;48.726;9.102;2022-07-21T09:58:52;7.87;;;4.03;;
15697;SDS011;7949;48.726;9.102;2022-07-21T10:01:20;7.93;;;4.10;;
15697;SDS011;7949;48.726;9.102;2022-07-21T10:03:49;4.83;;;4.03;;
15697;SDS011;7949;48.726;9.102;2022-07-21T10:06:17;6.10;;;3.77;;
15697;SDS011;7949;48.726;9.102;2022-07-21T10:08:47;5.53;;;3.63;;
15697;SDS011;7949;48.726;9.102;2022-07-21T10:11:15;4.47;;;3.20;;
15697;SDS011;7949;48.726;9.102;2022-07-21T10:13:42;3.43;;;3.03;;
15697;SDS011;7949;48.726;9.102;2022-07-21T10:16:10;5.67;;;2.90;;
15697;SDS011;7949;48.726;9.102;2022-07-21T10:18:42;4.23;;;3.17;;
15697;SDS011;7949;48.726;9.102;2022-07-21T10:21:29;5.60;;;3.20;;
15697;SDS011;7949;48.726;9.102;2022-07-21T10:24:04;3.40;;;3.00;;
15697;SDS011;7949;48.726;9.102;2022-07-21T10:26:31;3.65;;;2.63;;
15697;SDS011;7949;48.726;9.102;2022-07-21T10:28:58;4.55;;;2.80;;
15697;SDS011;7949;48.726;9.102;2022-07-21T10:31:25;3.53;;;2.50;;
15697;SDS011;7949;48.726;9.102;2022-07-21T10:33:57;4.18;;;2.63;;
15697;SDS011;7949;48.726;9.102;2022-07-21T10:36:42;3.60;;;2.58;;
15697;SDS011;7949;48.726;9.102;2022-07-21T10:39:22;3.15;;;2.65;;
15697;SDS011;7949;48.726;9.102;2022-07-21T10:41:51;4.28;;;3.00;;
15697;SDS011;7949;48.726;9.102;2022-07-21T10:44:39;4.90;;;2.92;;
15697;SDS011;7949;48.726;9.102;2022-07-21T10:47:13;4.43;;;3.17;;
15697;SDS011;7949;48.726;9.102;2022-07-21T10:49:50;5.38;;;3.20;;
15697;SDS011;7949;48.726;9.102;2022-07-21T10:55:25;3.17;;;2.85;;
15697;SDS011;7949;48.726;9.102;2022-07-21T11:00:49;4.22;;;3.00;;
15697;SDS011;7949;48.726;9.102;2022-07-21T11:03:18;4.35;;;2.58;;
15697;SDS011;7949;48.726;9.102;2022-07-21T11:08:41;4.38;;;2.67;;
15697;SDS011;7949;48.726;9.102;2022-07-21T11:11:11;5.80;;;3.20;;
15697;SDS011;7949;48.726;9.102;2022-07-21T11:19:27;4.13;;;3.15;;
15697;SDS011;7949;48.726;9.102;2022-07-21T11:21:55;4.18;;;3.05;;
15697;SDS011;7949;48.726;9.102;2022-07-21T11:24:24;6.30;;;3.00;;
15697;SDS011;7949;48.726;9.102;2022-07-21T11:26:54;5.05;;;3.30;;
15697;SDS011;7949;48.726;9.102;2022-07-21T11:29:22;5.78;;;2.60;;
15697;SDS011;7949;48.726;9.102;2022-07-21T11:31:49;4.05;;;3.00;;
15697;SDS011;7949;48.726;9.102;2022-07-21T11:34:17;3.70;;;3.22;;
15697;SDS011;7949;48.726;9.102;2022-07-21T11:36:44;4.72;;;2.83;;
15697;SDS011;7949;48.726;9.102;2022-07-21T11:39:13;5.03;;;2.80;;
15697;SDS011;7949;48.726;9.102;2022-07-21T11:41:41;5.80;;;3.00;;
15697;SDS011;7949;48.726;9.102;2022-07-21T11:44:10;4.78;;;3.20;;
15697;SDS011;7949;48.726;9.102;2022-07-21T11:46:44;5.25;;;2.92;;
15697;SDS011;7949;48.726;9.102;2022-07-21T11:49:12;4.13;;;3.03;;
15697;SDS011;7949;48.726;9.102;2022-07-21T11:51:45;4.20;;;3.25;;
15697;SDS011;7949;48.726;9.102;2022-07-21T11:54:23;4.35;;;3.10;;
15697;SDS011;7949;48.726;9.102;2022-07-21T11:56:55;4.78;;;2.95;;
15697;SDS011;7949;48.726;9.102;2022-07-21T11:59:23;3.92;;;2.80;;
15697;SDS011;7949;48.726;9.102;2022-07-21T12:01:52;3.67;;;2.97;;
15697;SDS011;7949;48.726;9.102;2022-07-21T12:04:31;4.05;;;3.17;;
15697;SDS011;7949;48.726;9.102;2022-07-21T12:07:05;4.13;;;2.70;;
15697;SDS011;7949;48.726;9.102;2022-07-21T12:09:35;4.15;;;2.67;;
15697;SDS011;7949;48.726;9.102;2022-07-21T12:12:03;4.35;;;3.60;;
15697;SDS011;7949;48.726;9.102;2022-07-21T12:14:42;5.18;;;2.95;;
15697;SDS011;7949;48.726;9.102;2022-07-21T12:17:14;3.70;;;2.90;;
15697;SDS011;7949;48.726;9.102;2022-07-21T12:19:42;3.50;;;2.78;;
15697;SDS011;7949;48.726;9.102;2022-07-21T12:22:09;4.70;;;2.80;;
15697;SDS011;7949;48.726;9.102;2022-07-21T12:24:47;3.65;;;2.97;;
15697;SDS011;7949;48.726;9.102;2022-07-21T12:27:18;3.67;;;2.60;;
15697;SDS011;7949;48.726;9.102;2022-07-21T12:29:47;4.60;;;3.25;;
15697;SDS011;7949;48.726;9.102;2022-07-21T12:32:14;3.38;;;3.00;;
15697;SDS011;7949;48.726;9.102;2022-07-21T12:35:02;3.40;;;3.10;;
15697;SDS011;7949;48.726;9.102;2022-07-21T12:40:21;5.05;;;3.60;;
15697;SDS011;7949;48.726;9.102;2022-07-21T12:42:50;3.42;;;3.13;;
15697;SDS011;7949;48.726;9.102;2022-07-21T12:45:19;6.65;;;3.40;;
15697;SDS011;7949;48.726;9.102;2022-07-21T12:48:06;3.83;;;3.28;;
15697;SDS011;7949;48.726;9.102;2022-07-21T12:50:34;4.00;;;3.03;;
15697;SDS011;7949;48.726;9.102;2022-07-21T12:53:03;5.40;;;3.58;;
15697;SDS011;7949;48.726;9.102;2022-07-21T12:55:31;6.15;;;3.88;;
15697;SDS011;7949;48.726;9.102;2022-07-21T12:57:58;4.22;;;3.30;;
15697;SDS011;7949;48.726;9.102;2022-07-21T13:00:27;3.45;;;3.10;;
15697;SDS011;7949;48.726;9.102;2022-07-21T13:02:57;4.40;;;3.22;;
15697;SDS011;7949;48.726;9.102;2022-07-21T13:05:24;5.03;;;3.13;;
15697;SDS011;7949;48.726;9.102;2022-07-21T13:07:52;3.78;;;3.22;;
15697;SDS011;7949;48.726;9.102;2022-07-21T13:10:19;3.55;;;3.25;;
15697;SDS011;7949;48.726;9.102;2022-07-21T13:12:46;4.47;;;3.25;;
15697;SDS011;7949;48.726;9.102;2022-07-21T13:15:13;4.10;;;3.40;;
15697;SDS011;7949;48.726;9.102;2022-07-21T13:17:42;3.97;;;3.38;;
15697;SDS011;7949;48.726;9.102;2022-07-21T13:20:09;4.80;;;3.60;;
15697;SDS011;7949;48.726;9.102;2022-07-21T13:22:37;4.03;;;3.17;;
15697;SDS011;7949;48.726;9.102;2022-07-21T13:25:04;3.97;;;3.58;;
15697;SDS011;7949;48.726;9.102;2022-07-21T13:27:34;4.32;;;3.60;;
15697;SDS011;7949;48.726;9.102;2022-07-21T13:30:02;7.13;;;4.03;;
15697;SDS011;7949;48.726;9.102;2022-07-21T13:32:31;5.43;;;4.00;;
15697;SDS011;7949;48.726;9.102;2022-07-21T13:35:00;7.70;;;4.40;;
15697;SDS011;7949;48.726;9.102;2022-07-21T13:37:27;6.47;;;4.25;;
15697;SDS011;7949;48.726;9.102;2022-07-21T13:39:54;4.90;;;4.03;;
15697;SDS011;7949;48.726;9.102;2022-07-21T13:42:21;6.40;;;4.07;;
15697;SDS011;7949;48.726;9.102;2022-07-21T13:44:48;7.22;;;4.30;;
15697;SDS011;7949;48.726;9.102;2022-07-21T13:47:15;6.60;;;4.00;;
15697;SDS011;7949;48.726;9.102;2022-07-21T13:49:42;5.15;;;4.18;;
15697;SDS011;7949;48.726;9.102;2022-07-21T13:52:10;5.35;;;3.97;;
15697;SDS011;7949;48.726;9.102;2022-07-21T13:54:37;5.22;;;4.10;;
15697;SDS011;7949;48.726;9.102;2022-07-21T13:57:04;5.50;;;4.18;;
15697;SDS011;7949;48.726;9.102;2022-07-21T13:59:31;4.50;;;4.10;;
15697;SDS011;7949;48.726;9.102;2022-07-21T14:01:59;6.25;;;4.10;;
15697;SDS011;7949;48.726;9.102;2022-07-21T14:04:25;5.25;;;4.13;;
15697;SDS011;7949;48.726;9.102;2022-07-21T14:06:52;6.30;;;3.60;;
15697;SDS011;7949;48.726;9.102;2022-07-21T14:09:21;8.02;;;4.15;;
15697;SDS011;7949;48.726;9.102;2022-07-21T14:11:50;4.25;;;3.75;;
15697;SDS011;7949;48.726;9.102;2022-07-21T14:14:17;4.75;;;4.00;;
15697;SDS011;7949;48.726;9.102;2022-07-21T14:16:47;7.00;;;4.22;;
15697;SDS011;7949;48.726;9.102;2022-07-21T14:19:15;5.38;;;4.07;;
15697;SDS011;7949;48.726;9.102;2022-07-21T14:21:42;6.30;;;3.80;;
15697;SDS011;7949;48.726;9.102;2022-07-21T14:24:09;6.65;;;4.20;;
15697;SDS011;7949;48.726;9.102;2022-07-21T14:26:55;4.53;;;4.07;;
15697;SDS011;7949;48.726;9.102;2022-07-21T14:29:23;6.18;;;3.70;;
15697;SDS011;7949;48.726;9.102;2022-07-21T14:31:50;5.53;;;4.05;;
15697;SDS011;7949;48.726;9.102;2022-07-21T14:34:17;4.72;;;4.00;;
15697;SDS011;7949;48.726;9.102;2022-07-21T14:36:44;6.20;;;3.88;;
15697;SDS011;7949;48.726;9.102;2022-07-21T14:39:12;5.22;;;4.00;;
15697;SDS011;7949;48.726;9.102;2022-07-21T14:41:39;5.22;;;3.97;;
15697;SDS011;7949;48.726;9.102;2022-07-21T14:44:07;7.50;;;4.30;;
15697;SDS011;7949;48.726;9.102;2022-07-21T14:46:34;7.43;;;4.28;;
15697;SDS011;7949;48.726;9.102;2022-07-21T14:49:01;4.70;;;4.20;;
15697;SDS011;7949;48.726;9.102;2022-07-21T14:51:29;5.07;;;3.70;;
15697;SDS011;7949;48.726;9.102;2022-07-21T14:53:56;5.45;;;3.53;;
15697;SDS011;7949;48.726;9.102;2022-07-21T14:56:23;7.20;;;4.13;;
15697;SDS011;7949;48.726;9.102;2022-07-21T14:58:50;4.72;;;3.72;;
15697;SDS011;7949;48.726;9.102;2022-07-21T15:01:18;7.35;;;4.43;;
15697;SDS011;7949;48.726;9.102;2022-07-21T15:03:45;4.28;;;3.63;;
15697;SDS011;7949;48.726;9.102;2022-07-21T15:06:12;4.82;;;3.97;;
15697;SDS011;7949;48.726;9.102;2022-07-21T15:08:39;6.18;;;4.05;;
15697;SDS011;7949;48.726;9.102;2022-07-21T15:11:06;5.38;;;3.63;;
15697;SDS011;7949;48.726;9.102;2022-07-21T15:13:35;5.30;;;3.30;;
15697;SDS011;7949;48.726;9.102;2022-07-21T15:16:03;6.78;;;3.50;;